Questo sito fa uso di cookie per migliorare l’esperienza di navigazione degli utenti e per raccogliere informazioni sull’utilizzo del sito stesso. Proseguendo nella navigazione si accetta l’uso dei cookie; in caso contrario è possibile abbandonare il sito.

[source: ADDS]
METAR
LIPA 252055Z 09009KT 9999 TSRA FEW035CB SCT040 BKN060 11/10 Q1012 RMK OVC VIS MIN 9999 WIND THR05 08008KT WIND THR23 07009KT A2989 BLU =
TAF LIPA 252000Z 2521/2606 03005KT 9999 SCT025 BKN050 TEMPO 2521/2524 03015KT 5000 TSRA FEW025CB BKN030 LIPB 252150Z 04013G25KT 9999 BKN140 11/M10 Q1017 RMK MON INVIS =
TAF LIPB 251700Z 2518/2618 34016G30KT 9999 SCT070 BECMG 2600/2603 35012KT BECMG 2610/2612 35016G28KT LIPC 252207Z 36022G35KT 9999 FEW030 11/09 Q1010 RMK BKN BKN090 VIS MIN 9999 WIND THR11 /////KT WIND THR29 02022G34KT BLU =
TAF LIPC 252000Z 2521/2606 04015KT 9999 SCT015 BKN020 TEMPO 2521/2606 04020G40KT 5000 RA PROB30 TEMPO 2521/2524 3000 SHRA FEW020CB BKN030 LIPE 252250Z 08018KT 9999 SCT020 SCT040 10/05 Q1014 =
TAF LIPE 251700Z 2518/2618 VRB05KT 9999 SCT030 BECMG 2518/2521 02012KT BECMG TEMPO 2521/2606 SHRA 2522/2524 08014KT BECMG 2600/2603 VRB05KT BECMG 2608/2610 03012KT LIPF 251755Z /////KT CAVOK 19/06 Q1005 =
LIPH 252250Z AUTO 09026G38KT 9999 -RA OVC088/// 07/04 Q1013 =
TAF LIPH 251700Z 2518/2618 06013G25KT 9999 SCT030 TEMPO 2518/2524 06015G25KT 4000 SHRA BECMG 2600/2602 03010KT TAF LIPI 251400Z 2515/2524 16005KT 9999 FEW030 SCT090 TEMPO 2516/2520 06015KT 7000 TSRA FEW020CB BKN040 LIPL 252155Z 17002KT 9999 SCT080 14/M02 Q1010 RMK BKN SCT120 VIS MIN 9999 WIND THR31 04012KT WIND THR13 16003KT BLU =
TAF LIPL 252000Z 2521/2606 04015KT 9999 SCT050 PROB30 TEMPO 2521/2603 04020G35KT 5000 TSRA FEW020CB BKN030 LIPO 252150Z 05016KT 8000 SCT050 15/M12 Q1009 =
TAF LIPO 251700Z 2518/2618 34015KT 9999 SCT060 TEMPO 2518/2524 35015G25KT BECMG 2600/2602 06005KT LIPQ 252250Z 10010KT 7000 SHRA SCT015 BKN030 06/04 Q1018 =
TAF LIPQ 251700Z 2518/2618 08012KT 9999 SCT025 TEMPO 2518/2521 4000 SHRA BECMG 2520/2522 VRB05KT BECMG 2608/2610 03012KT LIPR 252250Z AUTO 01021G37KT 330V030 9000 FEW069/// SCT094/// BKN130/// 12/07 Q1009 =
TAF LIPR 252000Z 2521/2606 02016G28KT 9999 FEW040 TEMPO 2521/2603 4000 SHRA LIPS 252155Z 10020KT 9999 BKN070 12/09 Q1013 RMK BKN VIS MIN 9999 WIND THR26 06016KT WIND THR08 10020KT BLU =
TAF LIPS 252000Z 2521/2606 08015KT 9999 BKN030 TEMPO TEMPO 2521/2603 08020G35KT 5000 TSRA FEW020CB BKN030 LIPX 252250Z 34018KT 9999 -RA FEW030 BKN040 11/M00 Q1014 =
TAF LIPX 252000Z 2521/2606 06015KT 9999 SCT050 TEMPO 2521/2524 04015G25KT PROB40 TEMPO 2521/2524 TSRA BECMG 2600/2602 12015KT BECMG 2604/2606 29005KT LIPY 252150Z 21006KT CAVOK 13/05 Q1008 =
TAF LIPY 251700Z 2518/2618 16008KT 9999 SCT030 BECMG 2520/2523 02018G35KT TEMPO 2521/2606 SHRA BECMG 2602/2604 03012KT LIPZ 252250Z 07031G42KT 7000 RA SCT013 BKN025 07/04 Q1015 NOSIG =
TAF LIPZ 251700Z 2518/2624 12010KT 9999 SCT030 BECMG 2518/2521 08018G30KT TEMPO 2518/2524 SHRA BECMG 2600/2603 02010KT BECMG 2610/2612 08012KT BECMG 2614/2616 08016G28KT LIVC 252155Z 32030G41KT 9999 SCT035 M00/M07 Q1010 RMK SCT MON LIB VAL NIL VIS MIN 9999 =
LIVD 251755Z ///03KT 9999 OVC025 06/M08 Q1014 RMK OVC VIS MIN 9999 =
LIVE 252155Z 35007KT 9999 SCT030 M03/M05 Q1017 RMK SCT VIS MIN 9999 =
LIVF 252155Z 19012KT CAVOK 11/M02 Q1008 RMK FEW FEW080 MON LIB VAL NIL VIS MIN 9999 =
LIVM 251755Z VRB03KT CAVOK 15/09 Q1006 RMK SKC QUK / QUL / VIS MAR 12 KM VIS MIN 9999 =
LIVO 251755Z 12002KT 9999 -RA OVC015 05/04 Q1013 RMK OVC VIS MIN 9999 =
LIVP 252155Z 36035KT 9999 BKN020 M06/M16 Q1009 RMK OVC SCT070 MON CIME INC VAL NIL VIS MIN 9999 =
LIVR 252055Z 33014KT CAVOK M05/M09 Q1010 RMK SKC MON LIB VIS MIN 9999 =
LIVT 251755Z 00000KT CAVOK 13/08 Q1007 RMK BKN BKN200 QUK / QUL / VIS MAR 15 KM VIS MIN 9999 =
LIMC 252250Z 36027KT CAVOK 10/M10 Q1015 NOSIG =
TAF LIMC 251700Z 2518/2624 03020KT CAVOK TEMPO 2518/2602 36020G35 BECMG 2604/2606 36008KT LIME 252250Z 31005KT 280V340 9999 SCT120 12/M14 Q1012 NOSIG =
TAF LIME 251700Z 2518/2618 34015KT 9999 SCT060 TEMPO 2518/2524 35020G30KT BECMG 2600/2602 01005KT LIMF 252250Z 33004KT 9999 FEW120 12/M11 Q1015 =
TAF LIMF 251700Z 2518/2618 03015KT CAVOK BECMG 2601/2603 04005KT LIMH 252155Z /////KT 0050 SN FZFG VV/// M17/M17 Q1005 RMK MON INVIS VAL INVIS VIS MIN 0050 =
LIMJ 252250Z 01025G38KT CAVOK 14/M11 Q1011 =
TAF LIMJ 251700Z 2518/2618 13010KT 9999 SCT020 SCT070 BECMG 2519/2521 01025KT TEMPO 2521/2604 01030G40KT BECMG 2604/2606 02015KT LIMK 252155Z 02012KT 320V050 CAVOK 10/M06 Q1011 RMK BKN BKN100 VAL NIL VIS MIN 9999 =
LIML 252250Z 35020G31KT CAVOK 13/M11 Q1013 NOSIG =
TAF LIML 251700Z 2518/2618 01015KT 9999 SCT060 TEMPO 2518/2602 35025G35KT BECMG 2602/2604 02005KT LIMN 251755Z 02024G36KT 9999 FEW030 16/M06 Q1008 RMK SCT SCT080 VIS MIN 9999 BLU =
TAF LIMN 251700Z 2518/2603 01015KT CAVOK TEMPO 2518/2603 01020G40KT LIMS 251755Z 33011KT CAVOK 19/07 Q1005 RMK SCT FEW100 SCT180 VIS MIN 9999 WIND THR30 33011KT BLU =
LIMU 252155Z 02012KT 9999 BKN020 12/10 Q1010 RMK BKN QUK / QUL / VIS MAR 25 KM VIS MIN 9999 =
LIMV 251755Z /////KT 5000 BR BKN008 10/10 Q1010 RMK OVC SCT080 MON GEN INC CUF VAL FOSCHIA VIS MIN 5000 =
LIMY 251755Z 12011KT CAVOK 15/11 Q1008 RMK SCT SCT190 VAL FOSCHIA VIS MIN 9999 =
TAF
TAF LIPA 252000Z 2521/2606 03005KT 9999 SCT025 BKN050 TEMPO 2521/2524 03015KT 5000 TSRA FEW025CB BKN030 =
TAF LIPB 251700Z 2518/2618 34016G30KT 9999 SCT070 BECMG 2600/2603 35012KT BECMG 2610/2612 35016G28KT =
TAF LIPC 252000Z 2521/2606 04015KT 9999 SCT015 BKN020 TEMPO 2521/2606 04020G40KT 5000 RA PROB30 TEMPO 2521/2524 3000 SHRA FEW020CB BKN030 =
TAF LIPE 251700Z 2518/2618 VRB05KT 9999 SCT030 BECMG 2518/2521 02012KT BECMG TEMPO 2521/2606 SHRA 2522/2524 08014KT BECMG 2600/2603 VRB05KT BECMG 2608/2610 03012KT =
TAF LIPH 251700Z 2518/2618 06013G25KT 9999 SCT030 TEMPO 2518/2524 06015G25KT 4000 SHRA BECMG 2600/2602 03010KT =
TAF LIPI 251400Z 2515/2524 16005KT 9999 FEW030 SCT090 TEMPO 2516/2520 06015KT 7000 TSRA FEW020CB BKN040 =
TAF LIPL 252000Z 2521/2606 04015KT 9999 SCT050 PROB30 TEMPO 2521/2603 04020G35KT 5000 TSRA FEW020CB BKN030 =
TAF LIPO 251700Z 2518/2618 34015KT 9999 SCT060 TEMPO 2518/2524 35015G25KT BECMG 2600/2602 06005KT =
TAF LIPQ 251700Z 2518/2618 08012KT 9999 SCT025 TEMPO 2518/2521 4000 SHRA BECMG 2520/2522 VRB05KT BECMG 2608/2610 03012KT =
TAF LIPR 252000Z 2521/2606 02016G28KT 9999 FEW040 TEMPO 2521/2603 4000 SHRA =
TAF LIPS 252000Z 2521/2606 08015KT 9999 BKN030 TEMPO TEMPO 2521/2603 08020G35KT 5000 TSRA FEW020CB BKN030 =
TAF LIPX 252000Z 2521/2606 06015KT 9999 SCT050 TEMPO 2521/2524 04015G25KT PROB40 TEMPO 2521/2524 TSRA BECMG 2600/2602 12015KT BECMG 2604/2606 29005KT =
TAF LIPY 251700Z 2518/2618 16008KT 9999 SCT030 BECMG 2520/2523 02018G35KT TEMPO 2521/2606 SHRA BECMG 2602/2604 03012KT =
TAF LIPZ 251700Z 2518/2624 12010KT 9999 SCT030 BECMG 2518/2521 08018G30KT TEMPO 2518/2524 SHRA BECMG 2600/2603 02010KT BECMG 2610/2612 08012KT BECMG 2614/2616 08016G28KT =
TAF LIMC 251700Z 2518/2624 03020KT CAVOK TEMPO 2518/2602 36020G35 BECMG 2604/2606 36008KT =
TAF LIME 251700Z 2518/2618 34015KT 9999 SCT060 TEMPO 2518/2524 35020G30KT BECMG 2600/2602 01005KT =
TAF LIMF 251700Z 2518/2618 03015KT CAVOK BECMG 2601/2603 04005KT =
TAF LIMJ 251700Z 2518/2618 13010KT 9999 SCT020 SCT070 BECMG 2519/2521 01025KT TEMPO 2521/2604 01030G40KT BECMG 2604/2606 02015KT =
TAF LIML 251700Z 2518/2618 01015KT 9999 SCT060 TEMPO 2518/2602 35025G35KT BECMG 2602/2604 02005KT =
TAF LIMN 251700Z 2518/2603 01015KT CAVOK TEMPO 2518/2603 01020G40KT =
SR / SS: 05:05 / 17:31 UTC (Effemeridi Aeroporto di Padova - LIPU 2019-03-25)

Immagini e previsioni meteo non aeronautiche

 

 

Immagini dal Radar Meteorologico del sito ARPAV. Orario UTC.

 

Immagine dal sito Meteo Sat Online

 

Legenda codici ICAO del nord Italia

 

In ordine di codice   In ordine di località
LIMC
Milano / Malpensa LIMG Albenga
LIME Bergamo / Orio Al Serio LIPA Aviano
LIMF Torino / Caselle LIME Bergamo / Orio Al Serio
LIMG Albenga LIPE Bologna / Borgo Panigale
LIMH Pian Rosa LIPB Bolzano
LIMJ Genova / Sestri LIPL Brescia / Ghedi
LIMK Torino / Bric Della Croce LIPO Brescia / Montichiari
LIML Milano / Linate LIMU Capo Mele
LIMN Novara / Cameri LIPC Cervia
LIMO Monte Bisbino LIVD Dobbiaco
LIMS Piacenza LIPP Dova Area Control Center
LIMT Passo Della Cisa LIPY Falconara
LIMU Capo Mele LIPF Ferrara
LIMV Passo Dei Giovi LIPK Forli
LIMY Monte Malanotte LIVF Frontone
LIPA Aviano LIMJ Genova / Sestri
LIPB Bolzano LIML Milano / Linate
LIPC Cervia
LIMC
Milano / Malpensa
LIPD Udine / Campoformido LIMO Monte Bisbino
LIPE Bologna / Borgo Panigale LIVC Monte Cimone
LIPF Ferrara LIMY Monte Malanotte
LIPH Treviso / S. Angelo LIMN Novara / Cameri
LIPI Udine / Rivolto LIPU Padova
LIPK Forli LIVP Paganella
LIPL Brescia / Ghedi LIMV Passo Dei Giovi
LIPO Brescia / Montichiari LIMT Passo Della Cisa
LIPP Dova Area Control Center LIVR Passo Rolle
LIPQ Ronchi Dei Legionari LIMS Piacenza
LIPR Rimini LIMH Pian Rosa
LIPS Treviso / Istrana LIVM Punta Marina
LIPT Vicenza LIVE Resia Pass
LIPU Padova LIPR Rimini
LIPX Verona / Villafranca LIPQ Ronchi Dei Legionari
LIPY Falconara LIVO Tarvisio
LIPZ Venezia / Tessera LIMK Torino / Bric Della Croce
LIVC Monte Cimone LIMF Torino / Caselle
LIVD Dobbiaco LIPS Treviso / Istrana
LIVE Resia Pass LIPH Treviso / S. Angelo
LIVF Frontone LIVT
Trieste
LIVM Punta Marina LIPD Udine / Campoformido
LIVO Tarvisio LIPI Udine / Rivolto
LIVP Paganella LIPZ Venezia / Tessera
LIVR Passo Rolle LIPX Verona / Villafranca
LIVT Trieste LIPT Vicenza

 

 

 

 

 

 

 

 

 

 

 

 

 

 

 

 

 

 

 

 

 

 

 

 

 

 

 

 

 

 

 

 

 

 

 

 

 

 

 

 

 

 

 

 

 

 

 

 

 

 

 

 

 

 

 

 

 

 

 

 

L'Aeroclub di Padova si limita a riportare informazioni fornite da terze parti, e non ha quindi alcuna responsabilità sul contenuto. Per la pianificazione dei propri voli si raccomanda l'utilizzo delle fonti ufficiali.

Copyright 2011. Free joomla templates | © Aeroclub Padova - Scuola di Volo, Ditta di manutenzione, CAMO Via Sorio, 89 - 35141 Padova Tel. 049 8718599 Fax 049 8717699 info@aeroclubpadova.it